createdAt,value
2023-01-23T00:01:24.489Z,54.70
2023-01-23T00:03:51.205Z,54.50
2023-01-23T00:06:18.190Z,54.60
2023-01-23T00:08:45.173Z,54.50
2023-01-23T00:11:12.751Z,54.40
2023-01-23T00:13:39.336Z,54.50
2023-01-23T00:16:10.704Z,54.60
2023-01-23T00:18:37.311Z,54.30
2023-01-23T00:21:04.770Z,54.50
2023-01-23T00:23:31.507Z,54.50
2023-01-23T00:26:02.197Z,54.50
2023-01-23T00:28:28.757Z,54.50
2023-01-23T00:31:01.926Z,54.40
2023-01-23T00:33:28.638Z,54.40
2023-01-23T00:35:55.291Z,54.40
2023-01-23T00:38:21.890Z,54.80
2023-01-23T00:40:48.544Z,54.60
2023-01-23T00:43:15.138Z,54.90
2023-01-23T00:45:41.761Z,54.50
2023-01-23T00:48:08.357Z,54.50
2023-01-23T00:50:34.963Z,54.60
2023-01-23T00:53:01.544Z,54.30
2023-01-23T00:55:28.398Z,54.60
2023-01-23T00:57:55.070Z,54.50
2023-01-23T01:00:22.022Z,54.80
2023-01-23T01:02:48.671Z,54.60
2023-01-23T01:05:18.073Z,54.40
2023-01-23T01:07:44.896Z,54.40
2023-01-23T01:10:11.790Z,54.40
2023-01-23T01:12:38.357Z,54.60
2023-01-23T01:15:05.560Z,54.50
2023-01-23T01:17:32.146Z,54.30
2023-01-23T01:19:58.720Z,54.30
2023-01-23T01:22:25.309Z,54.30
2023-01-23T01:24:51.868Z,54.20
2023-01-23T01:27:18.485Z,54.50
2023-01-23T01:29:45.107Z,54.30
2023-01-23T01:32:11.716Z,54.10
2023-01-23T01:34:38.313Z,54.30
2023-01-23T01:37:04.896Z,54.40
2023-01-23T01:39:31.697Z,54.30
2023-01-23T01:41:58.284Z,54.50
2023-01-23T01:44:25.148Z,54.20
2023-01-23T01:46:51.893Z,54.40
2023-01-23T01:49:18.476Z,54.40
2023-01-23T01:51:54.286Z,54.20
2023-01-23T01:54:33.255Z,54.40
2023-01-23T01:57:02.890Z,54.30
2023-01-23T01:59:30.132Z,54.30
2023-01-23T02:01:58.641Z,54.30
2023-01-23T02:04:25.253Z,54.50
2023-01-23T02:06:51.951Z,54.50
2023-01-23T02:09:23.021Z,54.30
2023-01-23T02:11:49.831Z,54.60
2023-01-23T02:14:16.449Z,54.40
2023-01-23T02:16:46.506Z,54.30
2023-01-23T02:19:17.419Z,54.20
2023-01-23T02:21:44.759Z,54.20
2023-01-23T02:24:17.542Z,54.30
2023-01-23T02:26:44.654Z,54.30
2023-01-23T02:29:11.625Z,54.30
2023-01-23T02:31:38.377Z,54.30
2023-01-23T02:34:05.096Z,54.20
2023-01-23T02:36:32.890Z,54.20
2023-01-23T02:39:07.015Z,54.30
2023-01-23T02:41:34.762Z,54.30
2023-01-23T02:44:03.258Z,54.30
2023-01-23T02:46:29.900Z,54.50
2023-01-23T02:48:56.522Z,54.20
2023-01-23T02:51:24.279Z,54.60
2023-01-23T02:53:50.918Z,54.30
2023-01-23T02:56:17.516Z,54.50
2023-01-23T02:59:03.007Z,54.30
2023-01-23T03:01:29.631Z,54.20
2023-01-23T03:03:56.548Z,54.40
2023-01-23T03:06:23.289Z,54.10
2023-01-23T03:08:49.897Z,54.40
2023-01-23T03:11:17.237Z,54.50
2023-01-23T03:13:45.012Z,54.20
2023-01-23T03:16:11.646Z,54.30
2023-01-23T03:18:52.760Z,54.10
2023-01-23T03:21:20.277Z,54.20
2023-01-23T03:23:48.263Z,54.20
2023-01-23T03:26:14.946Z,54.30
2023-01-23T03:29:00.336Z,54.20
2023-01-23T03:31:26.952Z,54.50
2023-01-23T03:33:53.662Z,54.30
2023-01-23T03:36:20.317Z,54.20
2023-01-23T03:39:05.622Z,54.30
2023-01-23T03:41:32.196Z,54.20
2023-01-23T03:43:58.771Z,54.00
2023-01-23T03:46:25.455Z,54.20
2023-01-23T03:48:52.012Z,54.20
2023-01-23T03:51:18.671Z,54.10
2023-01-23T03:53:45.474Z,54.20
2023-01-23T03:56:12.111Z,54.00
2023-01-23T03:58:38.687Z,54.10
2023-01-23T04:01:06.055Z,54.10
2023-01-23T04:03:32.643Z,54.20
2023-01-23T04:05:59.352Z,54.10
2023-01-23T04:08:25.958Z,54.10
2023-01-23T04:11:00.118Z,54.00
2023-01-23T04:13:26.690Z,54.50
2023-01-23T04:15:53.274Z,54.00
2023-01-23T04:18:19.851Z,54.30
2023-01-23T04:20:46.447Z,54.20
2023-01-23T04:23:13.076Z,54.10
2023-01-23T04:25:39.655Z,54.10
2023-01-23T04:28:06.230Z,54.30
2023-01-23T04:30:32.876Z,54.40
2023-01-23T04:32:59.466Z,54.10
2023-01-23T04:35:26.058Z,54.40
2023-01-23T04:37:52.631Z,54.20
2023-01-23T04:40:19.704Z,54.80
2023-01-23T04:42:46.581Z,54.20
2023-01-23T04:45:13.171Z,54.00
2023-01-23T04:47:39.797Z,54.00
2023-01-23T04:50:06.468Z,54.20
2023-01-23T04:52:33.033Z,53.90
2023-01-23T04:54:59.612Z,53.90
2023-01-23T04:57:26.222Z,53.90
2023-01-23T04:59:52.797Z,53.90
2023-01-23T05:02:19.408Z,54.00
2023-01-23T05:04:46.003Z,53.90
2023-01-23T05:07:12.629Z,54.10
2023-01-23T05:09:39.274Z,54.20
2023-01-23T05:12:06.078Z,54.10
2023-01-23T05:14:32.759Z,54.20
2023-01-23T05:16:59.336Z,54.00
2023-01-23T05:19:25.971Z,54.20
2023-01-23T05:21:52.544Z,54.20
2023-01-23T05:24:19.114Z,54.20
2023-01-23T05:26:45.818Z,54.10
2023-01-23T05:29:12.485Z,54.10
2023-01-23T05:31:39.248Z,54.60
2023-01-23T05:34:05.857Z,54.10
2023-01-23T05:36:32.431Z,54.00
2023-01-23T05:38:59.004Z,54.50
2023-01-23T05:41:25.836Z,54.30
2023-01-23T05:43:52.399Z,54.20
2023-01-23T05:46:18.995Z,54.00
2023-01-23T05:48:48.256Z,54.20
2023-01-23T05:51:14.845Z,54.20
2023-01-23T05:53:41.454Z,54.20
2023-01-23T05:56:08.301Z,54.10
2023-01-23T05:58:34.910Z,53.80
2023-01-23T06:01:04.684Z,53.80
2023-01-23T06:03:31.408Z,53.20
2023-01-23T06:05:58.033Z,53.60
2023-01-23T06:08:24.668Z,53.50
2023-01-23T06:10:51.223Z,53.90
2023-01-23T06:13:17.791Z,54.00
2023-01-23T06:15:44.472Z,53.90
2023-01-23T06:18:11.108Z,54.20
2023-01-23T06:20:37.756Z,53.80
2023-01-23T06:23:04.321Z,53.80
2023-01-23T06:25:30.931Z,53.80
2023-01-23T06:27:57.513Z,53.80
2023-01-23T06:30:24.087Z,54.00
2023-01-23T06:32:50.697Z,53.80
2023-01-23T06:35:17.451Z,53.70
2023-01-23T06:37:44.145Z,53.80
2023-01-23T06:40:13.247Z,53.90
2023-01-23T06:42:40.351Z,53.80
2023-01-23T06:45:07.504Z,53.90
2023-01-23T06:47:34.097Z,53.80
2023-01-23T06:50:02.080Z,53.70
2023-01-23T06:52:28.883Z,53.80
2023-01-23T06:54:55.459Z,54.00
2023-01-23T06:57:22.032Z,54.00
2023-01-23T06:59:48.685Z,53.70
2023-01-23T07:02:15.262Z,53.60
2023-01-23T07:04:41.923Z,53.80
2023-01-23T07:07:08.534Z,53.60
2023-01-23T07:09:35.130Z,53.80
2023-01-23T07:12:01.699Z,53.50
2023-01-23T07:14:28.687Z,53.50
2023-01-23T07:16:55.654Z,53.60
2023-01-23T07:19:22.239Z,53.60
2023-01-23T07:21:48.964Z,53.80
2023-01-23T07:24:15.544Z,53.70
2023-01-23T07:26:42.098Z,53.70
2023-01-23T07:29:11.722Z,53.70
2023-01-23T07:31:38.348Z,53.60
2023-01-23T07:34:05.015Z,53.60
2023-01-23T07:36:31.596Z,53.50
2023-01-23T07:38:59.079Z,53.80
2023-01-23T07:41:25.876Z,53.40
2023-01-23T07:43:52.452Z,53.70
2023-01-23T07:46:19.088Z,53.50
2023-01-23T07:48:45.685Z,53.40
2023-01-23T07:51:12.316Z,53.70
2023-01-23T07:53:38.932Z,53.50
2023-01-23T07:56:06.132Z,53.80
2023-01-23T07:58:32.805Z,53.60
2023-01-23T08:00:59.523Z,53.60
2023-01-23T08:03:28.975Z,53.60
2023-01-23T08:05:55.674Z,53.50
2023-01-23T08:08:22.272Z,53.60
2023-01-23T08:10:48.853Z,53.70
2023-01-23T08:13:15.456Z,53.40
2023-01-23T08:15:42.110Z,53.40
2023-01-23T08:18:08.663Z,53.40
2023-01-23T08:20:35.271Z,53.30
2023-01-23T08:23:02.418Z,53.30
2023-01-23T08:25:29.386Z,53.30
2023-01-23T08:27:55.999Z,53.10
2023-01-23T08:30:22.829Z,53.10
2023-01-23T08:32:49.499Z,53.30
2023-01-23T08:35:16.206Z,53.10
2023-01-23T08:37:42.842Z,53.10
2023-01-23T08:40:09.724Z,53.20
2023-01-23T08:42:36.306Z,53.00
2023-01-23T08:45:02.944Z,53.20
2023-01-23T08:47:30.320Z,53.00
2023-01-23T08:50:06.205Z,53.10
2023-01-23T08:52:38.713Z,53.10
2023-01-23T08:55:09.770Z,53.00
2023-01-23T08:57:49.133Z,53.10
2023-01-23T09:00:16.612Z,53.00
2023-01-23T09:03:04.139Z,53.00
2023-01-23T09:05:40.668Z,53.00
2023-01-23T09:08:07.873Z,53.00
2023-01-23T09:10:35.448Z,53.10
2023-01-23T09:13:05.588Z,53.10
2023-01-23T09:15:40.263Z,53.10
2023-01-23T09:18:12.842Z,53.10
2023-01-23T09:20:43.240Z,53.00
2023-01-23T09:23:16.185Z,53.00
2023-01-23T09:25:45.948Z,52.90
2023-01-23T09:28:24.445Z,53.00
2023-01-23T09:30:55.639Z,52.90
2023-01-23T09:36:41.793Z,53.00
2023-01-23T09:39:15.182Z,52.90
2023-01-23T09:41:47.285Z,52.90
2023-01-23T09:44:27.647Z,52.80
2023-01-23T09:47:06.737Z,52.70
2023-01-23T09:49:54.262Z,52.90
2023-01-23T09:52:31.411Z,52.80
2023-01-23T09:55:10.557Z,52.80
2023-01-23T09:57:44.490Z,52.90
2023-01-23T10:00:25.531Z,52.80
2023-01-23T10:03:01.008Z,52.80
2023-01-23T10:05:33.709Z,52.80
2023-01-23T10:08:19.055Z,52.80
2023-01-23T10:11:06.335Z,52.80
2023-01-23T10:13:51.727Z,52.90
2023-01-23T10:16:18.328Z,53.00
2023-01-23T10:19:02.861Z,52.80
2023-01-23T10:21:48.949Z,52.80
2023-01-23T10:24:18.721Z,52.80
2023-01-23T10:26:50.623Z,53.00
2023-01-23T10:29:28.777Z,52.70
2023-01-23T10:32:12.936Z,52.80
2023-01-23T10:34:44.910Z,52.70
2023-01-23T10:37:54.016Z,52.60
2023-01-23T10:40:40.430Z,52.70
2023-01-23T10:43:16.898Z,52.70
2023-01-23T10:45:46.002Z,52.70
2023-01-23T10:48:40.839Z,52.60
2023-01-23T10:51:26.756Z,52.70
2023-01-23T10:54:06.587Z,52.50
2023-01-23T10:56:33.734Z,52.70
2023-01-23T10:59:00.558Z,52.60
2023-01-23T11:01:31.691Z,52.60
2023-01-23T11:04:08.519Z,52.50
2023-01-23T11:06:35.138Z,52.50
2023-01-23T11:09:01.954Z,52.40
2023-01-23T11:11:29.344Z,52.60
2023-01-23T11:14:04.408Z,52.60
2023-01-23T11:16:31.005Z,52.40
2023-01-23T11:19:03.768Z,52.60
2023-01-23T11:21:32.689Z,52.40
2023-01-23T11:24:20.472Z,52.50
2023-01-23T11:26:49.131Z,52.50
2023-01-23T11:29:38.709Z,52.20
2023-01-23T11:32:06.207Z,52.40
2023-01-23T11:34:38.285Z,52.30
2023-01-23T11:37:10.743Z,52.30
2023-01-23T11:39:51.264Z,52.30
2023-01-23T11:42:19.504Z,52.40
2023-01-23T11:44:46.884Z,52.40
2023-01-23T11:47:16.555Z,52.30
2023-01-23T11:49:53.608Z,52.40
2023-01-23T11:52:38.489Z,52.40
2023-01-23T11:55:24.606Z,52.20
2023-01-23T11:58:00.275Z,52.30
2023-01-23T12:00:26.981Z,52.30
2023-01-23T12:02:53.717Z,52.30
2023-01-23T12:05:20.606Z,52.40
2023-01-23T12:07:53.597Z,52.20
2023-01-23T12:10:27.361Z,52.40
2023-01-23T12:12:59.636Z,52.30
2023-01-23T12:15:26.328Z,52.20
2023-01-23T12:17:55.950Z,52.20
2023-01-23T12:20:41.359Z,52.30
2023-01-23T12:23:22.745Z,52.30
2023-01-23T12:25:56.502Z,52.30
2023-01-23T12:28:42.053Z,52.20
2023-01-23T12:31:11.714Z,52.10
2023-01-23T12:33:42.498Z,52.10
2023-01-23T12:36:28.756Z,52.10
2023-01-23T12:39:24.865Z,52.10
2023-01-23T12:41:59.390Z,52.00
2023-01-23T12:44:39.752Z,52.20
2023-01-23T12:47:20.192Z,52.00
2023-01-23T12:49:49.187Z,52.10
2023-01-23T12:52:16.807Z,52.00
2023-01-23T12:54:43.955Z,52.00
2023-01-23T12:57:10.620Z,52.20
2023-01-23T12:59:37.424Z,52.20
2023-01-23T13:02:10.303Z,52.20
2023-01-23T13:04:49.322Z,52.10
2023-01-23T13:07:22.217Z,52.00
2023-01-23T13:10:07.629Z,52.20
2023-01-23T13:12:34.192Z,52.10
2023-01-23T13:15:17.224Z,52.20
2023-01-23T13:17:52.045Z,52.00
2023-01-23T13:20:37.505Z,52.20
2023-01-23T13:23:18.475Z,52.00
2023-01-23T13:25:45.167Z,52.00
2023-01-23T13:28:43.957Z,52.00
2023-01-23T13:31:32.972Z,52.00
2023-01-23T13:34:14.572Z,52.00
2023-01-23T13:36:45.677Z,52.00
2023-01-23T13:39:18.360Z,52.00
2023-01-23T13:41:45.319Z,52.00
2023-01-23T13:44:35.721Z,52.00
2023-01-23T14:24:32.933Z,52.00
2023-01-23T14:27:07.469Z,52.10
2023-01-23T14:29:34.571Z,52.00
2023-01-23T14:32:01.208Z,52.00
2023-01-23T14:34:27.845Z,52.00
2023-01-23T14:37:06.173Z,51.80
2023-01-23T14:39:33.666Z,51.90
2023-01-23T14:42:02.710Z,51.80
2023-01-23T14:44:30.858Z,52.00
2023-01-23T14:46:57.925Z,51.00
2023-01-23T14:49:29.215Z,51.50
2023-01-23T14:51:56.836Z,51.70
2023-01-23T14:54:23.773Z,51.90
2023-01-23T14:56:50.882Z,51.70
2023-01-23T14:59:21.016Z,51.80
2023-01-23T15:01:54.660Z,51.80
2023-01-23T15:04:21.797Z,51.70
2023-01-23T15:06:52.464Z,51.80
2023-01-23T15:09:19.269Z,51.80
2023-01-23T15:11:45.862Z,51.70
2023-01-23T15:14:25.680Z,51.80
2023-01-23T15:16:58.611Z,51.90
2023-01-23T15:19:25.225Z,51.80
2023-01-23T15:21:51.945Z,51.80
2023-01-23T15:24:20.324Z,52.00
2023-01-23T15:27:00.337Z,51.80
2023-01-23T15:29:27.265Z,51.90
2023-01-23T15:31:54.233Z,51.90
2023-01-23T15:34:21.372Z,51.90
2023-01-23T15:36:47.922Z,52.50
2023-01-23T15:39:17.702Z,51.80
2023-01-23T15:41:45.254Z,52.00
2023-01-23T15:44:12.693Z,52.00
2023-01-23T15:46:39.410Z,51.80
2023-01-23T15:49:10.792Z,51.80
2023-01-23T15:51:43.152Z,51.80
2023-01-23T15:54:12.334Z,51.90
2023-01-23T15:56:38.913Z,52.00
2023-01-23T15:59:08.942Z,51.90
2023-01-23T16:01:35.569Z,51.80
2023-01-23T16:04:02.309Z,51.90
2023-01-23T16:06:28.897Z,51.90
2023-01-23T16:09:05.145Z,51.90
2023-01-23T16:11:33.212Z,51.90
2023-01-23T16:14:00.053Z,51.90
2023-01-23T16:16:27.408Z,51.90
2023-01-23T16:18:54.022Z,51.90
2023-01-23T16:21:20.997Z,51.70
2023-01-23T16:23:48.065Z,51.80
2023-01-23T16:26:21.360Z,51.80
2023-01-23T16:28:48.179Z,52.50
2023-01-23T16:31:15.388Z,51.70
2023-01-23T16:33:42.088Z,51.70
2023-01-23T16:36:18.657Z,52.10
2023-01-23T16:38:48.282Z,52.00
2023-01-23T16:41:14.862Z,52.00
2023-01-23T16:43:41.451Z,52.10
2023-01-23T16:46:08.592Z,52.10
2023-01-23T16:48:35.257Z,52.10
2023-01-23T16:51:08.179Z,51.90
2023-01-23T16:53:35.721Z,52.00
2023-01-23T16:56:02.423Z,52.00
2023-01-23T16:58:29.857Z,51.90
2023-01-23T17:01:08.804Z,51.90
2023-01-23T17:03:35.846Z,51.90
2023-01-23T17:06:02.496Z,52.00
2023-01-23T17:08:29.350Z,51.90
2023-01-23T17:10:57.867Z,52.00
2023-01-23T17:13:24.704Z,50.70
2023-01-23T17:15:51.900Z,51.10
2023-01-23T17:18:38.734Z,51.50
2023-01-23T17:21:08.057Z,51.70
2023-01-23T17:23:34.804Z,51.20
2023-01-23T17:26:01.880Z,51.90
2023-01-23T17:28:28.886Z,53.10
2023-01-23T17:30:55.876Z,52.50
2023-01-23T17:33:23.067Z,52.50
2023-01-23T17:35:49.877Z,52.50
2023-01-23T17:38:23.774Z,52.40
2023-01-23T17:40:50.531Z,52.50
2023-01-23T17:43:17.603Z,52.40
2023-01-23T17:45:44.652Z,52.40
2023-01-23T17:48:13.006Z,52.60
2023-01-23T17:50:39.876Z,52.40
2023-01-23T17:53:06.458Z,52.50
2023-01-23T17:55:33.288Z,52.50
2023-01-23T17:58:00.714Z,52.50
2023-01-23T18:00:27.558Z,52.50
2023-01-23T18:02:57.952Z,52.40
2023-01-23T18:05:25.724Z,52.50
2023-01-23T18:07:54.265Z,52.40
2023-01-23T18:10:22.009Z,52.40
2023-01-23T18:12:51.778Z,52.40
2023-01-23T18:15:29.120Z,52.40
2023-01-23T18:18:01.930Z,52.30
2023-01-23T18:20:28.874Z,52.40
2023-01-23T18:22:56.597Z,52.40
2023-01-23T18:25:24.908Z,52.10
2023-01-23T18:27:55.408Z,52.30
2023-01-23T18:30:34.556Z,52.30
2023-01-23T18:33:19.609Z,52.10
2023-01-23T18:35:59.413Z,52.10
2023-01-23T18:38:38.625Z,52.20
2023-01-23T18:41:11.596Z,52.10
2023-01-23T18:43:39.888Z,52.10
2023-01-23T18:46:16.605Z,52.90
2023-01-23T18:48:43.807Z,52.10
2023-01-23T18:51:22.854Z,52.10
2023-01-23T18:54:01.613Z,52.20
2023-01-23T18:56:30.927Z,52.00
2023-01-23T18:59:24.041Z,52.20
2023-01-23T19:02:14.082Z,52.10
2023-01-23T19:04:45.715Z,52.00
2023-01-23T19:07:18.494Z,52.10
2023-01-23T19:09:46.656Z,52.10
2023-01-23T19:12:25.446Z,52.20
2023-01-23T19:15:04.635Z,52.00
2023-01-23T19:17:51.303Z,52.00
2023-01-23T19:20:56.586Z,52.00
2023-01-23T19:23:23.197Z,52.00
2023-01-23T19:25:49.881Z,52.10
2023-01-23T19:28:16.822Z,52.20
2023-01-23T19:30:43.676Z,52.10
2023-01-23T19:33:12.286Z,52.10
2023-01-23T19:35:39.098Z,52.10
2023-01-23T19:38:05.798Z,52.10
2023-01-23T19:40:32.420Z,52.10
2023-01-23T19:43:13.639Z,52.10
2023-01-23T19:45:42.737Z,52.10
2023-01-23T19:48:09.431Z,52.10
2023-01-23T19:50:36.190Z,52.00
2023-01-23T19:53:02.896Z,52.10
2023-01-23T19:55:30.570Z,52.10
2023-01-23T19:57:57.362Z,52.10
2023-01-23T20:00:24.743Z,52.10
2023-01-23T20:02:52.248Z,52.00
2023-01-23T20:05:19.332Z,52.00
2023-01-23T20:07:46.019Z,52.00
2023-01-23T20:10:12.794Z,52.00
2023-01-23T20:12:40.882Z,52.00
2023-01-23T20:15:07.986Z,52.00
2023-01-23T20:17:34.584Z,52.00
2023-01-23T20:20:01.308Z,52.00
2023-01-23T20:22:29.468Z,52.70
2023-01-23T20:24:56.085Z,52.00
2023-01-23T20:27:22.736Z,52.00
2023-01-23T20:29:52.292Z,51.90
2023-01-23T20:32:19.094Z,51.90
2023-01-23T20:34:45.756Z,51.80
2023-01-23T20:37:12.327Z,51.90
2023-01-23T20:39:41.292Z,51.80
2023-01-23T20:42:08.858Z,51.90
2023-01-23T20:44:36.726Z,51.80
2023-01-23T20:47:03.352Z,51.80
2023-01-23T20:49:30.978Z,51.80
2023-01-23T20:52:17.656Z,51.60
2023-01-23T20:54:44.572Z,51.70
2023-01-23T20:57:12.323Z,51.70
2023-01-23T20:59:39.173Z,51.70
2023-01-23T21:02:24.228Z,51.60
2023-01-23T21:04:51.404Z,51.60
2023-01-23T21:07:18.186Z,51.70
2023-01-23T21:09:45.810Z,51.50
2023-01-23T21:12:12.409Z,51.70
2023-01-23T21:14:39.236Z,51.80
2023-01-23T21:17:05.920Z,51.60
2023-01-23T21:19:32.942Z,51.70
2023-01-23T21:21:59.560Z,51.70
2023-01-23T21:24:26.283Z,51.60
2023-01-23T21:26:53.003Z,51.60
2023-01-23T21:29:19.670Z,51.70
2023-01-23T21:31:46.363Z,51.70
2023-01-23T21:34:13.541Z,51.60
2023-01-23T21:36:40.544Z,51.60
2023-01-23T21:39:09.421Z,51.70
2023-01-23T21:41:36.935Z,51.60
2023-01-23T21:44:03.572Z,51.50
2023-01-23T21:46:30.262Z,51.60
2023-01-23T21:48:56.941Z,51.60
2023-01-23T21:51:25.184Z,51.50
2023-01-23T21:53:51.871Z,51.50
2023-01-23T21:56:19.343Z,51.40
2023-01-23T21:58:47.132Z,51.40
2023-01-23T22:01:33.076Z,51.60
2023-01-23T22:04:06.897Z,51.50
2023-01-23T22:06:33.728Z,51.40
2023-01-23T22:09:00.423Z,51.40
2023-01-23T22:11:27.164Z,51.40
2023-01-23T22:13:53.801Z,51.40
2023-01-23T22:16:22.901Z,51.20
2023-01-23T22:18:55.061Z,51.40
2023-01-23T22:21:21.648Z,51.40
2023-01-23T22:23:48.288Z,51.30
2023-01-23T22:26:14.894Z,51.40
2023-01-23T22:28:41.524Z,51.20
2023-01-23T22:31:10.887Z,51.40
2023-01-23T22:33:41.361Z,51.40
2023-01-23T22:36:08.692Z,51.40
2023-01-23T22:38:35.301Z,51.40
2023-01-23T22:41:02.814Z,51.40
2023-01-23T22:43:29.625Z,51.40
2023-01-23T22:46:06.224Z,51.40
2023-01-23T22:48:33.745Z,51.50
2023-01-23T22:51:01.245Z,51.50
2023-01-23T22:53:27.961Z,51.50
2023-01-23T22:55:55.561Z,51.50
2023-01-23T22:58:22.295Z,51.40
2023-01-23T23:00:52.083Z,51.50
2023-01-23T23:03:19.747Z,51.50
2023-01-23T23:05:46.544Z,51.50
2023-01-23T23:08:13.263Z,51.40
2023-01-23T23:10:40.154Z,51.40
2023-01-23T23:13:06.843Z,51.60
2023-01-23T23:15:34.852Z,51.40
2023-01-23T23:18:01.599Z,51.40
2023-01-23T23:20:28.359Z,51.50
2023-01-23T23:22:55.044Z,51.30
2023-01-23T23:25:22.051Z,51.40
2023-01-23T23:27:49.023Z,51.30
2023-01-23T23:30:18.837Z,51.30
2023-01-23T23:32:45.598Z,51.40
2023-01-23T23:35:12.318Z,51.30
2023-01-23T23:37:38.987Z,51.40
2023-01-23T23:40:07.273Z,51.30
2023-01-23T23:42:33.981Z,51.30
2023-01-23T23:45:00.710Z,51.30
2023-01-23T23:47:28.229Z,51.30
2023-01-23T23:49:54.953Z,51.40
2023-01-23T23:52:21.627Z,51.40
2023-01-23T23:54:48.280Z,51.40
2023-01-23T23:57:18.199Z,51.40
2023-01-23T23:59:44.884Z,51.40
